sensor_id;sensor_type;location;lat;lon;timestamp;P1;durP1;ratioP1;P2;durP2;ratioP2
70363;SDS011;57785;43.898;1.886;2022-08-19T06:08:27;12.75;;;7.80;;
70363;SDS011;57785;43.898;1.886;2022-08-19T06:10:54;14.70;;;7.63;;
70363;SDS011;57785;43.898;1.886;2022-08-19T06:13:20;14.27;;;7.57;;
70363;SDS011;57785;43.898;1.886;2022-08-19T06:15:48;13.23;;;7.72;;
70363;SDS011;57785;43.898;1.886;2022-08-19T06:18:14;19.45;;;8.15;;
70363;SDS011;57785;43.898;1.886;2022-08-19T06:20:41;12.68;;;7.28;;
70363;SDS011;57785;43.898;1.886;2022-08-19T06:23:07;12.40;;;7.05;;
70363;SDS011;57785;43.898;1.886;2022-08-19T06:25:34;14.23;;;7.45;;
70363;SDS011;57785;43.898;1.886;2022-08-19T06:28:00;12.60;;;7.15;;
70363;SDS011;57785;43.898;1.886;2022-08-19T06:30:27;15.38;;;7.20;;
70363;SDS011;57785;43.898;1.886;2022-08-19T06:32:53;15.43;;;7.03;;
70363;SDS011;57785;43.898;1.886;2022-08-19T06:35:19;15.30;;;7.60;;
70363;SDS011;57785;43.898;1.886;2022-08-19T06:37:45;11.90;;;7.30;;
70363;SDS011;57785;43.898;1.886;2022-08-19T06:40:12;15.38;;;6.97;;
70363;SDS011;57785;43.898;1.886;2022-08-19T06:42:38;13.90;;;7.15;;
70363;SDS011;57785;43.898;1.886;2022-08-19T06:45:05;13.38;;;7.45;;
70363;SDS011;57785;43.898;1.886;2022-08-19T06:47:33;12.30;;;7.18;;
70363;SDS011;57785;43.898;1.886;2022-08-19T06:49:59;11.98;;;6.82;;
70363;SDS011;57785;43.898;1.886;2022-08-19T06:52:28;12.88;;;7.13;;
70363;SDS011;57785;43.898;1.886;2022-08-19T06:54:54;10.43;;;6.85;;
70363;SDS011;57785;43.898;1.886;2022-08-19T06:57:21;12.32;;;6.95;;
70363;SDS011;57785;43.898;1.886;2022-08-19T06:59:48;11.57;;;6.95;;
70363;SDS011;57785;43.898;1.886;2022-08-19T07:02:14;15.27;;;6.80;;
70363;SDS011;57785;43.898;1.886;2022-08-19T07:04:40;15.50;;;7.22;;
70363;SDS011;57785;43.898;1.886;2022-08-19T07:07:09;12.82;;;6.30;;
70363;SDS011;57785;43.898;1.886;2022-08-19T07:09:37;14.23;;;6.05;;
70363;SDS011;57785;43.898;1.886;2022-08-19T07:12:05;11.93;;;6.90;;
70363;SDS011;57785;43.898;1.886;2022-08-19T07:14:31;13.02;;;6.70;;
70363;SDS011;57785;43.898;1.886;2022-08-19T07:17:01;13.07;;;6.70;;
70363;SDS011;57785;43.898;1.886;2022-08-19T07:19:27;14.00;;;6.60;;
70363;SDS011;57785;43.898;1.886;2022-08-19T07:21:55;14.68;;;6.32;;
70363;SDS011;57785;43.898;1.886;2022-08-19T07:24:22;11.13;;;6.57;;
70363;SDS011;57785;43.898;1.886;2022-08-19T07:26:49;12.90;;;6.78;;
70363;SDS011;57785;43.898;1.886;2022-08-19T07:29:15;14.18;;;6.57;;
70363;SDS011;57785;43.898;1.886;2022-08-19T07:31:42;15.25;;;6.38;;
70363;SDS011;57785;43.898;1.886;2022-08-19T07:34:09;12.85;;;6.28;;
70363;SDS011;57785;43.898;1.886;2022-08-19T07:36:37;14.73;;;6.82;;
70363;SDS011;57785;43.898;1.886;2022-08-19T07:39:07;12.05;;;6.20;;
70363;SDS011;57785;43.898;1.886;2022-08-19T07:41:34;13.77;;;6.15;;
70363;SDS011;57785;43.898;1.886;2022-08-19T07:44:01;12.88;;;6.38;;
70363;SDS011;57785;43.898;1.886;2022-08-19T07:46:30;13.10;;;6.47;;
70363;SDS011;57785;43.898;1.886;2022-08-19T07:48:56;15.60;;;6.75;;
70363;SDS011;57785;43.898;1.886;2022-08-19T07:51:22;10.95;;;6.20;;
70363;SDS011;57785;43.898;1.886;2022-08-19T16:53:48;6.40;;;2.78;;
70363;SDS011;57785;43.898;1.886;2022-08-19T16:56:17;4.45;;;2.72;;
70363;SDS011;57785;43.898;1.886;2022-08-19T16:58:43;7.45;;;2.95;;
70363;SDS011;57785;43.898;1.886;2022-08-19T17:01:10;5.03;;;2.60;;
70363;SDS011;57785;43.898;1.886;2022-08-19T17:03:36;7.88;;;2.70;;
70363;SDS011;57785;43.898;1.886;2022-08-19T17:06:07;3.72;;;2.35;;
70363;SDS011;57785;43.898;1.886;2022-08-19T17:08:33;5.15;;;2.40;;
70363;SDS011;57785;43.898;1.886;2022-08-19T17:10:59;4.35;;;2.60;;
70363;SDS011;57785;43.898;1.886;2022-08-19T17:13:27;6.55;;;2.50;;
70363;SDS011;57785;43.898;1.886;2022-08-19T17:15:53;4.82;;;2.25;;
70363;SDS011;57785;43.898;1.886;2022-08-19T17:18:20;3.33;;;2.20;;
70363;SDS011;57785;43.898;1.886;2022-08-19T17:20:46;8.13;;;2.60;;
70363;SDS011;57785;43.898;1.886;2022-08-19T17:23:13;5.35;;;2.33;;
70363;SDS011;57785;43.898;1.886;2022-08-19T17:25:39;3.97;;;2.40;;
70363;SDS011;57785;43.898;1.886;2022-08-19T17:28:13;5.43;;;2.40;;
70363;SDS011;57785;43.898;1.886;2022-08-19T17:30:39;5.63;;;2.40;;
70363;SDS011;57785;43.898;1.886;2022-08-19T17:33:06;5.30;;;2.53;;
70363;SDS011;57785;43.898;1.886;2022-08-19T17:35:32;3.88;;;2.20;;
70363;SDS011;57785;43.898;1.886;2022-08-19T17:38:05;3.83;;;2.17;;
70363;SDS011;57785;43.898;1.886;2022-08-19T17:40:32;4.13;;;2.20;;
70363;SDS011;57785;43.898;1.886;2022-08-19T17:42:58;8.07;;;2.55;;
70363;SDS011;57785;43.898;1.886;2022-08-19T17:45:24;3.17;;;2.20;;
70363;SDS011;57785;43.898;1.886;2022-08-19T17:47:51;2.72;;;2.00;;
70363;SDS011;57785;43.898;1.886;2022-08-19T17:50:18;3.65;;;2.10;;
70363;SDS011;57785;43.898;1.886;2022-08-19T17:52:44;4.38;;;2.40;;
70363;SDS011;57785;43.898;1.886;2022-08-19T17:55:10;5.53;;;2.13;;
70363;SDS011;57785;43.898;1.886;2022-08-19T17:57:36;3.40;;;2.03;;
70363;SDS011;57785;43.898;1.886;2022-08-19T18:00:06;5.13;;;2.10;;
70363;SDS011;57785;43.898;1.886;2022-08-19T18:02:42;3.97;;;2.10;;
70363;SDS011;57785;43.898;1.886;2022-08-19T18:05:08;3.80;;;1.92;;
70363;SDS011;57785;43.898;1.886;2022-08-19T18:07:34;5.00;;;2.10;;
70363;SDS011;57785;43.898;1.886;2022-08-19T18:10:00;3.33;;;2.10;;
70363;SDS011;57785;43.898;1.886;2022-08-19T18:12:27;3.13;;;2.08;;
70363;SDS011;57785;43.898;1.886;2022-08-19T18:14:53;4.43;;;2.05;;
70363;SDS011;57785;43.898;1.886;2022-08-19T18:17:19;4.57;;;2.00;;
70363;SDS011;57785;43.898;1.886;2022-08-19T18:19:47;3.83;;;2.25;;
70363;SDS011;57785;43.898;1.886;2022-08-19T18:22:30;5.10;;;2.35;;
70363;SDS011;57785;43.898;1.886;2022-08-19T18:24:59;4.53;;;2.30;;
70363;SDS011;57785;43.898;1.886;2022-08-19T18:27:26;4.22;;;2.10;;
70363;SDS011;57785;43.898;1.886;2022-08-19T18:29:52;5.03;;;2.13;;
70363;SDS011;57785;43.898;1.886;2022-08-19T18:32:23;6.97;;;2.30;;
70363;SDS011;57785;43.898;1.886;2022-08-19T18:34:50;6.70;;;2.30;;
70363;SDS011;57785;43.898;1.886;2022-08-19T18:37:17;7.18;;;2.28;;
70363;SDS011;57785;43.898;1.886;2022-08-19T18:39:43;5.40;;;1.98;;
70363;SDS011;57785;43.898;1.886;2022-08-19T18:42:28;10.70;;;3.20;;
70363;SDS011;57785;43.898;1.886;2022-08-19T18:45:13;7.43;;;2.40;;
70363;SDS011;57785;43.898;1.886;2022-08-19T18:47:57;6.03;;;2.10;;
70363;SDS011;57785;43.898;1.886;2022-08-19T18:50:42;6.75;;;2.08;;
70363;SDS011;57785;43.898;1.886;2022-08-19T18:53:08;6.25;;;2.00;;
70363;SDS011;57785;43.898;1.886;2022-08-19T18:55:35;8.57;;;2.38;;
70363;SDS011;57785;43.898;1.886;2022-08-19T18:58:01;5.00;;;2.30;;
70363;SDS011;57785;43.898;1.886;2022-08-19T19:00:28;4.50;;;2.00;;
70363;SDS011;57785;43.898;1.886;2022-08-19T19:02:54;6.55;;;2.47;;
70363;SDS011;57785;43.898;1.886;2022-08-19T19:05:20;4.50;;;2.35;;
70363;SDS011;57785;43.898;1.886;2022-08-19T19:07:48;3.78;;;2.38;;
70363;SDS011;57785;43.898;1.886;2022-08-19T19:10:14;4.72;;;2.20;;
70363;SDS011;57785;43.898;1.886;2022-08-19T19:12:41;4.93;;;2.33;;
70363;SDS011;57785;43.898;1.886;2022-08-19T19:15:11;5.30;;;2.30;;
70363;SDS011;57785;43.898;1.886;2022-08-19T19:17:37;5.53;;;2.20;;
70363;SDS011;57785;43.898;1.886;2022-08-19T19:20:06;3.97;;;2.30;;
70363;SDS011;57785;43.898;1.886;2022-08-19T19:22:32;3.17;;;2.03;;
70363;SDS011;57785;43.898;1.886;2022-08-19T19:24:58;4.55;;;2.20;;
70363;SDS011;57785;43.898;1.886;2022-08-19T19:27:25;6.57;;;2.25;;
70363;SDS011;57785;43.898;1.886;2022-08-19T19:29:51;4.97;;;2.33;;
70363;SDS011;57785;43.898;1.886;2022-08-19T19:32:25;5.15;;;2.10;;
70363;SDS011;57785;43.898;1.886;2022-08-19T19:34:51;3.92;;;2.30;;
70363;SDS011;57785;43.898;1.886;2022-08-19T19:37:17;4.95;;;2.33;;
70363;SDS011;57785;43.898;1.886;2022-08-19T19:39:43;4.25;;;2.33;;
70363;SDS011;57785;43.898;1.886;2022-08-19T19:42:12;3.53;;;2.20;;
70363;SDS011;57785;43.898;1.886;2022-08-19T19:44:42;4.30;;;2.55;;
70363;SDS011;57785;43.898;1.886;2022-08-19T19:47:09;4.00;;;2.40;;
70363;SDS011;57785;43.898;1.886;2022-08-19T19:49:35;2.97;;;2.42;;
70363;SDS011;57785;43.898;1.886;2022-08-19T19:52:04;9.27;;;2.58;;
70363;SDS011;57785;43.898;1.886;2022-08-19T19:54:31;6.35;;;2.40;;
70363;SDS011;57785;43.898;1.886;2022-08-19T19:56:57;3.47;;;2.40;;
70363;SDS011;57785;43.898;1.886;2022-08-19T19:59:24;3.85;;;2.30;;
70363;SDS011;57785;43.898;1.886;2022-08-19T20:01:50;5.57;;;2.50;;
70363;SDS011;57785;43.898;1.886;2022-08-19T20:04:16;4.65;;;2.45;;
70363;SDS011;57785;43.898;1.886;2022-08-19T20:06:43;5.45;;;2.47;;
70363;SDS011;57785;43.898;1.886;2022-08-19T20:09:09;6.65;;;2.65;;
70363;SDS011;57785;43.898;1.886;2022-08-19T20:11:47;5.60;;;2.47;;
70363;SDS011;57785;43.898;1.886;2022-08-19T20:14:18;4.97;;;2.28;;
70363;SDS011;57785;43.898;1.886;2022-08-19T20:16:44;4.50;;;2.20;;
70363;SDS011;57785;43.898;1.886;2022-08-19T20:19:12;4.82;;;2.38;;
70363;SDS011;57785;43.898;1.886;2022-08-19T20:21:39;4.38;;;2.30;;
70363;SDS011;57785;43.898;1.886;2022-08-19T20:24:08;3.35;;;2.47;;
70363;SDS011;57785;43.898;1.886;2022-08-19T20:26:35;5.90;;;2.40;;
70363;SDS011;57785;43.898;1.886;2022-08-19T20:29:01;7.28;;;2.60;;
70363;SDS011;57785;43.898;1.886;2022-08-19T20:31:27;4.50;;;2.60;;
70363;SDS011;57785;43.898;1.886;2022-08-19T20:33:53;3.30;;;2.47;;
70363;SDS011;57785;43.898;1.886;2022-08-19T20:36:19;3.55;;;2.40;;
70363;SDS011;57785;43.898;1.886;2022-08-19T20:38:45;4.22;;;2.50;;
70363;SDS011;57785;43.898;1.886;2022-08-19T20:41:11;4.07;;;2.55;;
70363;SDS011;57785;43.898;1.886;2022-08-19T20:43:38;4.63;;;2.53;;
70363;SDS011;57785;43.898;1.886;2022-08-19T20:46:05;4.05;;;2.40;;
70363;SDS011;57785;43.898;1.886;2022-08-19T20:48:31;4.15;;;2.70;;
70363;SDS011;57785;43.898;1.886;2022-08-19T20:50:57;10.23;;;2.55;;
70363;SDS011;57785;43.898;1.886;2022-08-19T20:53:23;5.30;;;2.55;;
70363;SDS011;57785;43.898;1.886;2022-08-19T20:55:51;5.57;;;2.65;;
70363;SDS011;57785;43.898;1.886;2022-08-19T20:58:18;6.20;;;2.47;;
70363;SDS011;57785;43.898;1.886;2022-08-19T21:00:45;4.20;;;2.50;;
70363;SDS011;57785;43.898;1.886;2022-08-19T21:03:13;3.92;;;1.98;;
70363;SDS011;57785;43.898;1.886;2022-08-19T21:05:41;5.40;;;2.70;;
70363;SDS011;57785;43.898;1.886;2022-08-19T21:08:07;3.65;;;2.50;;
70363;SDS011;57785;43.898;1.886;2022-08-19T21:10:33;3.72;;;2.38;;
70363;SDS011;57785;43.898;1.886;2022-08-19T21:12:59;3.92;;;2.60;;
70363;SDS011;57785;43.898;1.886;2022-08-19T21:15:27;3.58;;;2.58;;
70363;SDS011;57785;43.898;1.886;2022-08-19T21:17:54;6.80;;;2.70;;
70363;SDS011;57785;43.898;1.886;2022-08-19T21:20:21;6.65;;;3.17;;
70363;SDS011;57785;43.898;1.886;2022-08-19T21:22:47;7.10;;;2.80;;
70363;SDS011;57785;43.898;1.886;2022-08-19T21:25:14;7.38;;;2.85;;
70363;SDS011;57785;43.898;1.886;2022-08-19T21:27:40;3.65;;;2.80;;
70363;SDS011;57785;43.898;1.886;2022-08-19T21:30:07;4.00;;;2.47;;
70363;SDS011;57785;43.898;1.886;2022-08-19T21:32:33;4.43;;;2.67;;
70363;SDS011;57785;43.898;1.886;2022-08-19T21:35:00;4.22;;;2.55;;
70363;SDS011;57785;43.898;1.886;2022-08-19T21:37:29;3.95;;;2.63;;
70363;SDS011;57785;43.898;1.886;2022-08-19T21:39:58;4.07;;;2.55;;
70363;SDS011;57785;43.898;1.886;2022-08-19T21:42:24;5.70;;;2.80;;
70363;SDS011;57785;43.898;1.886;2022-08-19T21:44:50;4.65;;;2.80;;
70363;SDS011;57785;43.898;1.886;2022-08-19T21:47:17;4.57;;;2.70;;
70363;SDS011;57785;43.898;1.886;2022-08-19T21:49:43;4.00;;;2.60;;
70363;SDS011;57785;43.898;1.886;2022-08-19T21:52:10;4.35;;;2.60;;
70363;SDS011;57785;43.898;1.886;2022-08-19T21:54:37;3.03;;;2.40;;
70363;SDS011;57785;43.898;1.886;2022-08-19T21:57:03;6.63;;;2.53;;
70363;SDS011;57785;43.898;1.886;2022-08-19T21:59:29;4.75;;;3.03;;
70363;SDS011;57785;43.898;1.886;2022-08-19T22:01:55;5.63;;;3.08;;
70363;SDS011;57785;43.898;1.886;2022-08-19T22:04:22;2.75;;;2.50;;
70363;SDS011;57785;43.898;1.886;2022-08-19T22:06:48;4.30;;;2.60;;
70363;SDS011;57785;43.898;1.886;2022-08-19T22:09:14;6.30;;;3.00;;
70363;SDS011;57785;43.898;1.886;2022-08-19T22:11:40;4.05;;;3.00;;
70363;SDS011;57785;43.898;1.886;2022-08-19T22:14:07;5.70;;;3.13;;
70363;SDS011;57785;43.898;1.886;2022-08-19T22:16:33;8.02;;;2.72;;
70363;SDS011;57785;43.898;1.886;2022-08-19T22:18:59;5.25;;;2.63;;
70363;SDS011;57785;43.898;1.886;2022-08-19T22:21:25;5.53;;;2.53;;
70363;SDS011;57785;43.898;1.886;2022-08-19T22:23:51;5.03;;;2.55;;
70363;SDS011;57785;43.898;1.886;2022-08-19T22:26:17;3.50;;;2.55;;
70363;SDS011;57785;43.898;1.886;2022-08-19T22:28:43;4.00;;;2.65;;
70363;SDS011;57785;43.898;1.886;2022-08-19T22:31:10;3.95;;;2.70;;
70363;SDS011;57785;43.898;1.886;2022-08-19T22:33:36;3.88;;;2.72;;
70363;SDS011;57785;43.898;1.886;2022-08-19T22:36:03;7.35;;;3.00;;
70363;SDS011;57785;43.898;1.886;2022-08-19T22:38:31;6.20;;;2.67;;
70363;SDS011;57785;43.898;1.886;2022-08-19T22:40:57;7.00;;;3.00;;
70363;SDS011;57785;43.898;1.886;2022-08-19T22:43:25;4.43;;;2.92;;
70363;SDS011;57785;43.898;1.886;2022-08-19T22:45:54;7.57;;;3.05;;
70363;SDS011;57785;43.898;1.886;2022-08-19T22:48:21;8.05;;;2.88;;
70363;SDS011;57785;43.898;1.886;2022-08-19T22:50:48;5.78;;;2.42;;
70363;SDS011;57785;43.898;1.886;2022-08-19T22:53:34;4.18;;;2.70;;
70363;SDS011;57785;43.898;1.886;2022-08-19T22:56:00;4.68;;;2.70;;
70363;SDS011;57785;43.898;1.886;2022-08-19T22:58:27;5.07;;;2.53;;
70363;SDS011;57785;43.898;1.886;2022-08-19T23:00:53;3.83;;;2.70;;
70363;SDS011;57785;43.898;1.886;2022-08-19T23:03:20;6.53;;;2.90;;
70363;SDS011;57785;43.898;1.886;2022-08-19T23:05:46;7.25;;;2.95;;
